createdAt,value
2023-05-02T00:00:03.759Z,5.22
2023-05-02T00:03:06.947Z,4.75
2023-05-02T00:06:09.638Z,5.07
2023-05-02T00:09:12.098Z,5.28
2023-05-02T00:12:14.055Z,5.00
2023-05-02T00:15:16.054Z,4.55
2023-05-02T00:18:18.129Z,4.63
2023-05-02T00:21:20.188Z,6.30
2023-05-02T00:24:22.359Z,4.05
2023-05-02T00:27:25.614Z,4.15
2023-05-02T00:30:27.621Z,6.78
2023-05-02T00:33:29.715Z,4.15
2023-05-02T00:36:32.017Z,6.35
2023-05-02T00:39:35.449Z,5.55
2023-05-02T00:42:37.509Z,7.63
2023-05-02T00:45:40.387Z,5.97
2023-05-02T00:48:42.468Z,14.50
2023-05-02T00:51:44.751Z,3.90
2023-05-02T00:54:47.796Z,3.75
2023-05-02T00:57:49.768Z,4.88
2023-05-02T01:01:24.238Z,11.80
2023-05-02T01:04:32.348Z,6.60
2023-05-02T01:07:55.836Z,4.32
2023-05-02T01:11:17.592Z,4.35
2023-05-02T01:14:22.283Z,5.15
2023-05-02T01:17:29.041Z,6.47
2023-05-02T01:20:33.270Z,4.97
2023-05-02T01:24:02.888Z,6.05
2023-05-02T01:27:17.569Z,4.80
2023-05-02T01:30:21.636Z,7.15
2023-05-02T01:33:25.605Z,5.82
2023-05-02T01:36:30.065Z,4.32
2023-05-02T01:39:33.861Z,6.00
2023-05-02T01:42:37.458Z,7.03
2023-05-02T01:45:40.666Z,6.05
2023-05-02T01:48:45.777Z,3.08
2023-05-02T01:51:49.929Z,4.10
2023-05-02T01:54:53.076Z,3.25
2023-05-02T01:57:56.649Z,5.90
2023-05-02T02:01:01.078Z,5.35
2023-05-02T02:04:04.987Z,5.75
2023-05-02T02:07:10.833Z,4.60
2023-05-02T02:10:13.445Z,5.35
2023-05-02T02:13:27.637Z,4.53
2023-05-02T02:16:33.356Z,4.90
2023-05-02T02:19:35.862Z,4.45
2023-05-02T02:25:41.182Z,4.47
2023-05-02T02:28:44.067Z,3.53
2023-05-02T02:31:46.074Z,5.20
2023-05-02T02:34:48.069Z,3.95
2023-05-02T02:38:12.638Z,6.03
2023-05-02T02:41:27.522Z,3.35
2023-05-02T02:44:56.265Z,5.50
2023-05-02T02:48:46.319Z,3.30
2023-05-02T02:51:56.248Z,3.80
2023-05-02T02:55:17.437Z,3.80
2023-05-02T02:58:36.735Z,2.97
2023-05-02T03:01:41.961Z,4.85
2023-05-02T03:04:47.053Z,6.20
2023-05-02T03:07:49.445Z,3.05
2023-05-02T03:10:54.212Z,5.68
2023-05-02T03:13:56.150Z,4.68
2023-05-02T03:16:59.154Z,6.45
2023-05-02T03:20:01.642Z,5.55
2023-05-02T03:23:03.886Z,5.60
2023-05-02T03:26:06.185Z,3.80
2023-05-02T03:29:09.126Z,5.78
2023-05-02T03:32:14.843Z,5.40
2023-05-02T03:35:18.998Z,4.63
2023-05-02T03:38:22.315Z,4.18
2023-05-02T03:41:25.359Z,5.47
2023-05-02T03:44:34.459Z,6.97
2023-05-02T03:47:47.253Z,5.75
2023-05-02T03:50:52.732Z,5.28
2023-05-02T03:53:54.906Z,4.68
2023-05-02T03:56:56.965Z,6.05
2023-05-02T04:00:04.498Z,5.85
2023-05-02T04:03:13.510Z,3.90
2023-05-02T04:06:18.490Z,4.38
2023-05-02T04:09:26.247Z,5.50
2023-05-02T04:12:33.419Z,4.88
2023-05-02T04:15:36.246Z,4.93
2023-05-02T04:18:38.964Z,6.60
2023-05-02T04:21:43.176Z,6.57
2023-05-02T04:24:45.374Z,6.32
2023-05-02T04:27:48.383Z,4.38
2023-05-02T04:30:53.892Z,5.32
2023-05-02T04:33:59.387Z,7.68
2023-05-02T04:37:05.347Z,10.05
2023-05-02T04:40:09.423Z,9.93
2023-05-02T04:43:11.644Z,5.00
2023-05-02T04:46:23.227Z,5.32
2023-05-02T04:49:25.355Z,3.97
2023-05-02T04:52:27.436Z,5.97
2023-05-02T04:58:32.132Z,4.47
2023-05-02T05:01:37.975Z,6.10
2023-05-02T05:04:40.187Z,7.72
2023-05-02T05:07:42.470Z,4.80
2023-05-02T05:10:46.157Z,6.22
2023-05-02T05:16:51.416Z,7.38
2023-05-02T05:19:53.709Z,6.60
2023-05-02T05:22:56.475Z,5.07
2023-05-02T05:26:12.454Z,7.93
2023-05-02T05:29:16.976Z,5.82
2023-05-02T05:32:19.191Z,6.13
2023-05-02T05:38:23.774Z,7.93
2023-05-02T05:41:26.663Z,6.22
2023-05-02T05:44:36.982Z,6.53
2023-05-02T05:47:39.208Z,7.25
2023-05-02T05:50:41.322Z,7.13
2023-05-02T05:53:43.372Z,9.32
2023-05-02T05:56:47.626Z,6.47
2023-05-02T05:59:53.594Z,5.40
2023-05-02T06:02:55.896Z,6.90
2023-05-02T06:06:03.220Z,7.22
2023-05-02T06:09:05.606Z,6.60
2023-05-02T06:12:08.513Z,7.10
2023-05-02T06:15:13.101Z,6.43
2023-05-02T06:18:16.135Z,6.60
2023-05-02T06:21:18.703Z,6.75
2023-05-02T06:24:24.030Z,10.38
2023-05-02T06:27:25.994Z,7.85
2023-05-02T06:30:27.993Z,8.70
2023-05-02T06:33:30.924Z,6.90
2023-05-02T06:36:32.909Z,7.80
2023-05-02T06:39:34.876Z,7.47
2023-05-02T06:42:36.841Z,6.63
2023-05-02T06:45:39.553Z,11.00
2023-05-02T06:48:41.577Z,4.50
2023-05-02T06:51:43.836Z,9.55
2023-05-02T06:57:49.403Z,8.48
2023-05-02T07:00:51.390Z,7.85
2023-05-02T07:03:53.607Z,11.13
2023-05-02T07:09:57.819Z,9.85
2023-05-02T07:13:00.090Z,18.13
2023-05-02T07:16:02.217Z,12.00
2023-05-02T07:19:04.260Z,13.73
2023-05-02T07:25:08.523Z,19.45
2023-05-02T07:28:10.481Z,15.50
2023-05-02T07:31:12.477Z,19.58
2023-05-02T07:34:17.075Z,10.90
2023-05-02T07:37:19.122Z,13.63
2023-05-02T07:40:21.214Z,13.85
2023-05-02T07:46:27.905Z,12.32
2023-05-02T07:49:30.174Z,18.65
2023-05-02T07:55:34.064Z,16.83
2023-05-02T07:58:36.651Z,17.88
2023-05-02T08:01:40.079Z,23.27
2023-05-02T08:04:42.115Z,17.73
2023-05-02T08:07:44.074Z,13.30
2023-05-02T08:10:46.109Z,12.55
2023-05-02T08:16:50.235Z,22.10
2023-05-02T08:22:54.364Z,17.27
2023-05-02T08:25:56.291Z,17.48
2023-05-02T08:28:58.241Z,13.43
2023-05-02T08:32:00.268Z,16.73
2023-05-02T08:35:02.273Z,17.17
2023-05-02T08:41:19.182Z,15.85
2023-05-02T08:44:23.645Z,17.10
2023-05-02T08:47:27.184Z,17.95
2023-05-02T08:50:30.917Z,16.83
2023-05-02T08:53:35.271Z,13.68
2023-05-02T08:56:38.466Z,18.30
2023-05-02T08:59:43.303Z,17.00
2023-05-02T09:02:51.178Z,13.38
2023-05-02T09:06:00.064Z,12.90
2023-05-02T09:09:02.092Z,15.63
2023-05-02T09:15:12.567Z,15.77
2023-05-02T09:18:20.431Z,17.65
2023-05-02T09:24:25.841Z,15.57
2023-05-02T09:27:28.253Z,12.35
2023-05-02T09:30:30.214Z,13.20
2023-05-02T09:33:32.161Z,17.63
2023-05-02T09:40:01.346Z,14.57
2023-05-02T09:43:14.649Z,8.98
2023-05-02T09:46:16.648Z,14.82
2023-05-02T09:49:19.644Z,10.77
2023-05-02T09:52:27.987Z,15.50
2023-05-02T09:55:29.972Z,11.65
2023-05-02T09:58:32.153Z,18.63
2023-05-02T10:01:34.180Z,14.63
2023-05-02T10:04:36.958Z,12.13
2023-05-02T10:07:39.750Z,10.25
2023-05-02T10:10:46.043Z,13.93
2023-05-02T10:13:51.394Z,16.67
2023-05-02T10:17:12.290Z,14.98
2023-05-02T10:20:19.474Z,11.50
2023-05-02T10:23:22.228Z,14.55
2023-05-02T10:26:24.271Z,9.23
2023-05-02T10:32:34.470Z,10.38
2023-05-02T10:35:37.433Z,14.63
2023-05-02T10:38:42.249Z,17.42
2023-05-02T10:41:44.765Z,12.85
2023-05-02T10:44:47.501Z,12.13
2023-05-02T10:47:49.556Z,11.65
2023-05-02T11:04:06.172Z,10.45
2023-05-02T11:07:17.273Z,12.60
2023-05-02T11:10:19.225Z,8.80
2023-05-02T11:13:49.401Z,6.72
2023-05-02T11:17:03.693Z,7.95
2023-05-02T11:20:05.691Z,8.02
2023-05-02T11:23:16.676Z,12.38
2023-05-02T11:26:22.182Z,7.82
2023-05-02T11:29:52.695Z,6.00
2023-05-02T11:32:54.711Z,8.52
2023-05-02T11:38:58.812Z,9.93
2023-05-02T11:42:00.839Z,6.47
2023-05-02T11:48:06.545Z,6.40
2023-05-02T11:51:08.615Z,5.90
2023-05-02T11:54:20.365Z,8.00
2023-05-02T11:57:23.008Z,8.60
2023-05-02T12:00:28.134Z,8.35
2023-05-02T12:03:32.724Z,8.02
2023-05-02T12:06:35.418Z,6.53
2023-05-02T12:09:50.875Z,7.15
2023-05-02T12:13:04.970Z,9.23
2023-05-02T12:16:07.393Z,8.43
2023-05-02T12:19:09.546Z,6.90
2023-05-02T12:22:12.020Z,4.70
2023-05-02T12:25:14.143Z,6.30
2023-05-02T12:28:19.537Z,8.65
2023-05-02T12:31:21.974Z,6.40
2023-05-02T12:34:37.347Z,4.93
2023-05-02T12:37:39.320Z,3.92
2023-05-02T12:43:55.981Z,4.88
2023-05-02T12:46:59.587Z,4.85
2023-05-02T12:50:01.798Z,8.25
2023-05-02T12:53:04.028Z,7.05
2023-05-02T12:56:06.629Z,6.50
2023-05-02T12:59:08.956Z,5.68
2023-05-02T13:02:10.906Z,6.38
2023-05-02T13:08:18.048Z,7.43
2023-05-02T13:14:22.045Z,6.07
2023-05-02T13:17:24.127Z,5.85
2023-05-02T13:20:26.149Z,5.55
2023-05-02T13:26:30.342Z,3.50
2023-05-02T13:29:32.317Z,3.05
2023-05-02T13:35:36.462Z,4.18
2023-05-02T13:38:38.509Z,4.18
2023-05-02T13:41:40.452Z,5.05
2023-05-02T13:47:47.078Z,2.70
2023-05-02T13:50:49.096Z,4.95
2023-05-02T13:56:52.985Z,4.43
2023-05-02T13:59:56.743Z,2.15
2023-05-02T14:02:58.904Z,3.67
2023-05-02T14:06:00.974Z,3.17
2023-05-02T14:09:03.664Z,2.92
2023-05-02T14:12:05.682Z,7.57
2023-05-02T14:18:09.925Z,3.97
2023-05-02T14:21:11.991Z,4.03
2023-05-02T14:27:15.908Z,1.83
2023-05-02T14:33:20.159Z,4.95
2023-05-02T14:36:22.339Z,3.80
2023-05-02T14:39:26.914Z,2.20
2023-05-02T14:42:28.917Z,2.20
2023-05-02T14:45:30.957Z,2.20
2023-05-02T14:48:32.856Z,1.95
2023-05-02T14:54:39.196Z,2.53
2023-05-02T14:57:41.227Z,2.97
2023-05-02T15:04:03.542Z,3.42
2023-05-02T15:07:07.601Z,1.02
2023-05-02T15:10:09.761Z,1.20
2023-05-02T15:13:11.825Z,2.60
2023-05-02T15:19:15.786Z,3.15
2023-05-02T15:25:19.746Z,2.60
2023-05-02T15:28:22.328Z,1.95
2023-05-02T15:31:24.350Z,3.63
2023-05-02T15:37:28.949Z,1.65
2023-05-02T15:43:32.981Z,1.08
2023-05-02T15:49:36.885Z,1.75
2023-05-02T15:55:40.869Z,1.45
2023-05-02T16:01:45.417Z,1.98
2023-05-02T16:04:47.422Z,2.17
2023-05-02T16:10:54.032Z,3.90
2023-05-02T16:13:56.044Z,5.85
2023-05-02T16:20:00.893Z,3.63
2023-05-02T16:23:03.845Z,6.72
2023-05-02T16:26:05.938Z,3.63
2023-05-02T16:29:07.910Z,2.33
2023-05-02T16:35:12.114Z,1.85
2023-05-02T16:38:14.125Z,2.03
2023-05-02T16:44:18.010Z,1.90
2023-05-02T16:50:22.039Z,2.47
2023-05-02T16:53:25.096Z,3.10
2023-05-02T16:56:27.400Z,0.80
2023-05-02T16:59:29.522Z,1.20
2023-05-02T17:02:31.782Z,1.63
2023-05-02T17:05:33.981Z,2.03
2023-05-02T17:11:37.795Z,2.20
2023-05-02T17:14:41.069Z,1.67
2023-05-02T17:17:43.886Z,2.58
2023-05-02T17:20:47.032Z,1.40
2023-05-02T17:23:49.117Z,1.35
2023-05-02T17:29:53.010Z,1.38
2023-05-02T17:32:55.458Z,1.85
2023-05-02T17:35:57.503Z,2.92
2023-05-02T17:42:01.859Z,1.25
2023-05-02T17:45:04.068Z,2.05
2023-05-02T17:48:06.189Z,3.05
2023-05-02T17:54:10.114Z,3.30
2023-05-02T18:00:14.938Z,3.08
2023-05-02T18:03:17.107Z,3.13
2023-05-02T18:09:33.286Z,2.28
2023-05-02T18:12:46.598Z,2.38
2023-05-02T18:16:00.448Z,2.55
2023-05-02T18:19:02.511Z,2.30
2023-05-02T18:22:04.480Z,3.05
2023-05-02T18:25:07.001Z,6.90
2023-05-02T18:28:09.467Z,3.47
2023-05-02T18:31:17.476Z,2.67
2023-05-02T18:37:21.834Z,2.40
2023-05-02T18:40:24.112Z,2.83
2023-05-02T18:46:27.867Z,2.88
2023-05-02T18:49:29.981Z,2.75
2023-05-02T18:52:34.454Z,2.78
2023-05-02T18:55:36.510Z,5.45
2023-05-02T19:01:40.652Z,4.20
2023-05-02T19:04:42.800Z,4.05
2023-05-02T19:07:47.358Z,3.38
2023-05-02T19:10:49.308Z,3.10
2023-05-02T19:13:51.389Z,2.65
2023-05-02T19:16:54.023Z,2.30
2023-05-02T19:19:56.941Z,3.03
2023-05-02T19:23:14.719Z,3.25
2023-05-02T19:26:20.678Z,3.22
2023-05-02T19:29:22.630Z,2.20
2023-05-02T19:32:24.772Z,2.35
2023-05-02T19:35:29.951Z,2.38
2023-05-02T19:38:32.170Z,4.93
2023-05-02T19:41:34.164Z,6.28
2023-05-02T19:44:36.331Z,8.82
2023-05-02T19:47:38.522Z,2.78
2023-05-02T19:50:40.636Z,2.80
2023-05-02T19:53:42.671Z,3.53
2023-05-02T19:56:44.846Z,4.53
2023-05-02T19:59:46.913Z,2.45
2023-05-02T20:02:51.235Z,2.67
2023-05-02T20:05:53.533Z,2.58
2023-05-02T20:08:55.610Z,2.47
2023-05-02T20:11:57.682Z,2.95
2023-05-02T20:14:59.638Z,6.75
2023-05-02T20:18:01.928Z,3.88
2023-05-02T20:24:06.509Z,3.13
2023-05-02T20:27:08.583Z,2.58
2023-05-02T20:30:11.214Z,2.22
2023-05-02T20:33:16.654Z,2.78
2023-05-02T20:36:19.775Z,5.20
2023-05-02T20:39:22.020Z,4.05
2023-05-02T20:42:25.543Z,3.83
2023-05-02T20:45:27.691Z,2.90
2023-05-02T20:48:29.825Z,2.08
2023-05-02T20:51:31.863Z,2.40
2023-05-02T20:54:33.898Z,3.15
2023-05-02T20:57:36.148Z,4.22
2023-05-02T21:00:38.193Z,3.00
2023-05-02T21:03:40.198Z,4.55
2023-05-02T21:06:42.315Z,4.85
2023-05-02T21:09:44.241Z,2.75
2023-05-02T21:12:46.293Z,2.53
2023-05-02T21:15:48.260Z,2.78
2023-05-02T21:18:50.288Z,2.67
2023-05-02T21:21:52.215Z,3.40
2023-05-02T21:24:54.174Z,2.95
2023-05-02T21:27:56.091Z,2.25
2023-05-02T21:30:58.161Z,2.70
2023-05-02T21:34:00.682Z,2.45
2023-05-02T21:37:02.650Z,6.20
2023-05-02T21:40:05.215Z,3.28
2023-05-02T21:43:08.622Z,2.50
2023-05-02T21:46:11.803Z,2.08
2023-05-02T21:49:13.836Z,2.92
2023-05-02T21:52:15.794Z,2.97
2023-05-02T21:55:17.864Z,6.93
2023-05-02T21:58:20.079Z,3.70
2023-05-02T22:01:22.609Z,2.60
2023-05-02T22:04:24.755Z,3.53
2023-05-02T22:07:27.102Z,2.95
2023-05-02T22:10:30.552Z,5.50
2023-05-02T22:13:32.522Z,2.58
2023-05-02T22:16:34.692Z,6.57
2023-05-02T22:19:36.801Z,3.13
2023-05-02T22:22:39.878Z,4.22
2023-05-02T22:25:43.594Z,5.60
2023-05-02T22:28:45.747Z,2.30
2023-05-02T22:31:47.692Z,4.40
2023-05-02T22:34:49.880Z,2.90
2023-05-02T22:37:51.884Z,3.70
2023-05-02T22:40:54.409Z,4.53
2023-05-02T22:43:56.393Z,4.45
2023-05-02T22:47:06.149Z,3.75
2023-05-02T22:50:08.660Z,3.75
2023-05-02T22:56:12.563Z,1.75
2023-05-02T22:59:17.021Z,2.53
2023-05-02T23:02:19.031Z,4.97
2023-05-02T23:05:21.317Z,2.67
2023-05-02T23:08:23.324Z,3.60
2023-05-02T23:11:25.308Z,3.80
2023-05-02T23:14:28.281Z,2.47
2023-05-02T23:17:30.282Z,6.20
2023-05-02T23:20:33.951Z,2.65
2023-05-02T23:23:35.936Z,0.93
2023-05-02T23:26:37.894Z,3.58
2023-05-02T23:29:39.929Z,2.90
2023-05-02T23:32:42.010Z,2.97
2023-05-02T23:35:45.651Z,2.70
2023-05-02T23:38:47.756Z,28.30
2023-05-02T23:41:49.699Z,3.08
2023-05-02T23:44:51.685Z,3.42
2023-05-02T23:47:53.752Z,2.90
2023-05-02T23:50:55.885Z,2.97
2023-05-02T23:53:58.080Z,2.00
2023-05-02T23:57:00.711Z,5.75
